createdAt,value
2018-04-06T00:01:11.206Z,89.20
2018-04-06T00:03:44.276Z,89.00
2018-04-06T00:06:18.017Z,89.10
2018-04-06T00:08:52.118Z,89.30
2018-04-06T00:11:26.879Z,89.30
2018-04-06T00:13:59.621Z,89.20
2018-04-06T00:16:34.623Z,89.10
2018-04-06T00:19:07.369Z,89.20
2018-04-06T00:21:40.183Z,89.80
2018-04-06T00:24:17.432Z,90.20
2018-04-06T00:26:56.429Z,89.60
2018-04-06T00:29:29.537Z,89.90
2018-04-06T00:32:02.444Z,90.00
2018-04-06T00:34:35.746Z,90.00
2018-04-06T00:37:09.769Z,90.40
2018-04-06T00:39:42.846Z,90.10
2018-04-06T00:42:35.541Z,90.40
2018-04-06T00:47:51.321Z,90.50
2018-04-06T00:50:24.070Z,90.60
2018-04-06T00:52:57.571Z,90.60
2018-04-06T00:55:30.311Z,90.60
2018-04-06T00:58:03.042Z,90.60
2018-04-06T01:00:35.841Z,90.70
2018-04-06T01:03:08.572Z,90.80
2018-04-06T01:05:41.321Z,90.90
2018-04-06T01:08:14.825Z,91.00
2018-04-06T01:10:48.622Z,91.00
2018-04-06T01:13:22.124Z,91.30
2018-04-06T01:15:55.634Z,91.40
2018-04-06T01:18:28.373Z,91.40
2018-04-06T01:21:01.122Z,91.40
2018-04-06T01:23:34.869Z,91.30
2018-04-06T01:26:07.655Z,91.30
2018-04-06T01:28:41.155Z,91.30
2018-04-06T01:31:14.864Z,91.40
2018-04-06T01:33:49.344Z,91.50
2018-04-06T01:36:24.039Z,91.50
2018-04-06T01:38:56.784Z,91.40
2018-04-06T01:41:36.680Z,91.30
2018-04-06T01:44:09.416Z,91.30
2018-04-06T01:46:42.188Z,91.30
2018-04-06T01:49:15.688Z,91.10
2018-04-06T01:51:50.181Z,91.10
2018-04-06T01:54:22.912Z,91.10
2018-04-06T01:57:03.089Z,91.10
2018-04-06T01:59:35.824Z,91.10
2018-04-06T02:02:09.386Z,91.20
2018-04-06T02:04:46.070Z,91.20
2018-04-06T02:07:18.810Z,91.30
2018-04-06T02:09:51.529Z,91.30
2018-04-06T02:12:28.716Z,91.40
2018-04-06T02:15:01.473Z,91.60
2018-04-06T02:17:34.201Z,91.50
2018-04-06T02:20:06.934Z,91.60
2018-04-06T02:22:40.637Z,91.60
2018-04-06T02:25:13.370Z,91.60
2018-04-06T02:27:55.811Z,91.60
2018-04-06T02:30:28.550Z,91.60
2018-04-06T02:33:01.285Z,91.60
2018-04-06T02:35:34.169Z,91.90
2018-04-06T02:38:06.895Z,91.60
2018-04-06T02:40:39.625Z,91.60
2018-04-06T02:43:13.387Z,91.70
2018-04-06T02:45:46.128Z,91.60
2018-04-06T02:48:18.862Z,91.50
2018-04-06T02:50:51.598Z,91.40
2018-04-06T02:53:25.097Z,91.30
2018-04-06T02:55:58.925Z,91.30
2018-04-06T02:58:31.672Z,91.40
2018-04-06T03:01:05.173Z,91.70
2018-04-06T03:03:38.676Z,91.90
2018-04-06T03:06:12.177Z,92.10
2018-04-06T03:08:44.901Z,92.10
2018-04-06T03:11:18.630Z,92.10
2018-04-06T03:13:51.357Z,92.10
2018-04-06T03:16:24.102Z,91.90
2018-04-06T03:18:57.598Z,91.60
2018-04-06T03:21:31.095Z,91.30
2018-04-06T03:24:04.619Z,91.30
2018-04-06T03:26:41.150Z,91.30
2018-04-06T03:29:13.906Z,91.10
2018-04-06T03:31:46.639Z,90.90
2018-04-06T03:34:19.372Z,90.90
2018-04-06T03:36:52.114Z,91.00
2018-04-06T03:39:24.853Z,90.90
2018-04-06T03:41:59.414Z,90.80
2018-04-06T03:44:34.884Z,91.00
2018-04-06T03:47:07.612Z,91.00
2018-04-06T03:49:41.123Z,90.70
2018-04-06T03:52:13.858Z,90.70
2018-04-06T03:54:46.599Z,90.70
2018-04-06T03:57:21.412Z,90.70
2018-04-06T03:59:54.158Z,90.90
2018-04-06T04:02:27.867Z,91.00
2018-04-06T04:05:01.423Z,90.90
2018-04-06T04:07:34.176Z,90.90
2018-04-06T04:10:07.873Z,90.70
2018-04-06T04:12:53.347Z,90.70
2018-04-06T04:15:26.090Z,90.70
2018-04-06T04:17:58.849Z,90.70
2018-04-06T04:20:31.582Z,90.70
2018-04-06T04:23:04.319Z,90.70
2018-04-06T04:25:37.057Z,90.70
2018-04-06T04:28:13.266Z,90.60
2018-04-06T04:30:45.995Z,90.60
2018-04-06T04:33:18.723Z,90.60
2018-04-06T04:35:51.469Z,91.00
2018-04-06T04:38:24.216Z,91.00
2018-04-06T04:40:56.946Z,91.00
2018-04-06T04:43:32.566Z,91.00
2018-04-06T04:46:05.296Z,90.70
2018-04-06T04:48:39.772Z,90.90
2018-04-06T04:51:12.497Z,90.70
2018-04-06T04:53:45.236Z,90.70
2018-04-06T04:56:17.971Z,90.70
2018-04-06T04:58:51.487Z,90.20
2018-04-06T05:01:24.217Z,90.20
2018-04-06T05:03:56.974Z,90.20
2018-04-06T05:06:29.714Z,90.00
2018-04-06T05:09:02.455Z,89.80
2018-04-06T05:11:35.196Z,89.60
2018-04-06T05:14:15.515Z,89.70
2018-04-06T05:16:49.046Z,89.30
2018-04-06T05:19:21.773Z,89.30
2018-04-06T05:21:54.506Z,89.40
2018-04-06T05:24:27.306Z,89.00
2018-04-06T05:27:00.028Z,88.70
2018-04-06T05:29:33.543Z,88.60
2018-04-06T05:32:06.296Z,88.50
2018-04-06T05:34:39.025Z,88.30
2018-04-06T05:37:11.760Z,88.10
2018-04-06T05:39:45.268Z,87.40
2018-04-06T05:42:20.831Z,87.00
2018-04-06T05:44:53.573Z,87.00
2018-04-06T05:47:26.331Z,87.00
2018-04-06T05:49:59.059Z,86.40
2018-04-06T05:52:32.559Z,86.70
2018-04-06T05:55:05.303Z,86.60
2018-04-06T05:57:38.094Z,86.20
2018-04-06T06:00:10.824Z,85.80
2018-04-06T06:02:43.557Z,84.90
2018-04-06T06:05:16.304Z,84.40
2018-04-06T06:07:49.055Z,84.40
2018-04-06T06:10:21.861Z,84.60
2018-04-06T06:12:54.601Z,84.30
2018-04-06T06:15:27.337Z,83.70
2018-04-06T06:18:01.046Z,83.40
2018-04-06T06:20:33.798Z,82.40
2018-04-06T06:23:06.521Z,82.30
2018-04-06T06:25:39.256Z,82.20
2018-04-06T06:28:19.412Z,81.80
2018-04-06T06:30:52.151Z,81.60
2018-04-06T06:33:24.880Z,80.90
2018-04-06T06:35:57.615Z,80.60
2018-04-06T06:38:30.346Z,80.50
2018-04-06T06:41:04.058Z,80.30
2018-04-06T06:43:36.863Z,80.30
2018-04-06T06:46:09.592Z,80.00
2018-04-06T06:48:42.347Z,78.00
2018-04-06T06:51:15.078Z,78.70
2018-04-06T06:53:47.805Z,74.60
2018-04-06T06:56:20.533Z,71.00
2018-04-06T06:59:00.859Z,67.60
2018-04-06T07:01:33.585Z,64.00
2018-04-06T07:04:07.096Z,58.90
2018-04-06T07:06:39.839Z,58.90
2018-04-06T07:09:12.577Z,59.40
2018-04-06T07:11:45.312Z,59.40
2018-04-06T07:14:32.045Z,56.70
2018-04-06T07:17:04.791Z,56.70
2018-04-06T07:19:38.315Z,55.40
2018-04-06T07:22:11.054Z,55.40
2018-04-06T07:24:43.795Z,53.20
2018-04-06T07:27:16.536Z,54.00
2018-04-06T07:29:53.318Z,53.20
2018-04-06T07:32:26.837Z,52.60
2018-04-06T07:35:00.339Z,51.90
2018-04-06T07:37:33.074Z,51.90
2018-04-06T07:40:05.849Z,50.50
2018-04-06T07:42:38.639Z,50.20
2018-04-06T07:45:12.151Z,49.50
2018-04-06T07:47:46.601Z,48.40
2018-04-06T07:50:19.360Z,48.40
2018-04-06T07:52:52.096Z,48.10
2018-04-06T07:55:24.827Z,47.80
2018-04-06T07:57:57.673Z,48.00
2018-04-06T08:00:30.550Z,48.40
2018-04-06T08:03:03.550Z,48.60
2018-04-06T08:05:37.047Z,46.10
2018-04-06T08:08:12.509Z,47.30
2018-04-06T08:10:47.436Z,47.30
2018-04-06T08:13:24.690Z,47.60
2018-04-06T08:16:01.381Z,46.20
2018-04-06T08:18:39.590Z,46.40
2018-04-06T08:21:13.511Z,47.00
2018-04-06T08:23:46.267Z,46.80
2018-04-06T08:26:19.807Z,46.00
2018-04-06T08:28:58.513Z,45.30
2018-04-06T08:31:31.242Z,43.80
2018-04-06T08:34:05.705Z,44.30
2018-04-06T08:36:38.561Z,44.00
2018-04-06T08:39:12.169Z,44.30
2018-04-06T08:41:44.905Z,44.20
2018-04-06T08:44:28.037Z,44.40
2018-04-06T08:47:00.785Z,44.00
2018-04-06T08:49:33.526Z,45.10
2018-04-06T08:52:07.041Z,44.90
2018-04-06T08:54:43.373Z,44.80
2018-04-06T08:57:16.154Z,45.50
2018-04-06T08:59:48.955Z,45.10
2018-04-06T09:02:24.440Z,43.80
2018-04-06T09:04:57.173Z,43.70
2018-04-06T09:07:31.639Z,41.90
2018-04-06T09:10:05.322Z,41.80
2018-04-06T09:12:38.070Z,43.10
2018-04-06T09:15:25.066Z,40.70
2018-04-06T09:17:57.821Z,40.70
2018-04-06T09:20:30.558Z,39.80
2018-04-06T09:23:03.313Z,40.70
2018-04-06T09:25:36.053Z,41.00
2018-04-06T09:28:08.789Z,41.80
2018-04-06T09:30:55.002Z,38.90
2018-04-06T09:33:27.735Z,38.90
2018-04-06T09:36:06.377Z,38.50
2018-04-06T09:38:39.888Z,37.60
2018-04-06T09:41:21.259Z,37.60
2018-04-06T09:43:54.077Z,37.20
2018-04-06T09:46:31.799Z,36.90
2018-04-06T09:49:04.618Z,36.40
2018-04-06T09:51:38.121Z,36.40
2018-04-06T09:54:11.551Z,36.50
2018-04-06T09:56:44.293Z,31.30
2018-04-06T09:59:17.799Z,33.50
2018-04-06T10:01:52.097Z,34.10
2018-04-06T10:04:25.612Z,32.40
2018-04-06T10:07:06.733Z,32.30
2018-04-06T10:09:39.507Z,30.90
2018-04-06T10:12:14.228Z,30.30
2018-04-06T10:14:47.784Z,30.70
2018-04-06T10:17:24.735Z,28.10
2018-04-06T10:19:57.481Z,29.90
2018-04-06T10:22:31.078Z,31.20
2018-04-06T10:25:03.873Z,31.30
2018-04-06T10:27:37.576Z,32.50
2018-04-06T10:30:11.321Z,31.60
2018-04-06T10:32:47.886Z,31.70
2018-04-06T10:35:21.037Z,31.80
2018-04-06T10:37:53.762Z,31.00
2018-04-06T10:40:27.310Z,28.80
2018-04-06T10:43:00.062Z,29.30
2018-04-06T10:45:32.822Z,30.00
2018-04-06T10:48:12.369Z,30.10
2018-04-06T10:50:45.159Z,29.80
2018-04-06T10:53:18.879Z,31.10
2018-04-06T10:55:51.615Z,30.20
2018-04-06T10:58:25.116Z,31.80
2018-04-06T11:00:57.870Z,31.80
2018-04-06T11:03:32.392Z,34.30
2018-04-06T11:06:23.896Z,34.30
2018-04-06T11:09:00.088Z,32.70
2018-04-06T11:14:21.400Z,33.40
2018-04-06T11:19:37.129Z,35.70
2018-04-06T11:22:09.866Z,35.40
2018-04-06T11:24:43.568Z,39.70
2018-04-06T11:27:16.301Z,37.10
2018-04-06T11:29:49.046Z,37.10
2018-04-06T11:32:37.527Z,36.20
2018-04-06T11:35:23.369Z,37.30
2018-04-06T13:41:29.553Z,34.10
2018-04-06T13:44:02.300Z,34.00
2018-04-06T13:46:35.797Z,36.60
2018-04-06T13:49:09.340Z,35.00
2018-04-06T13:51:42.058Z,35.00
2018-04-06T13:54:14.857Z,36.80
2018-04-06T13:56:47.554Z,34.10
2018-04-06T13:59:20.882Z,39.00
2018-04-06T14:01:53.707Z,41.60
2018-04-06T14:04:27.247Z,40.60
2018-04-06T14:06:59.987Z,40.60
2018-04-06T14:09:37.296Z,41.00
2018-04-06T14:12:10.078Z,40.90
2018-04-06T14:14:42.819Z,39.50
2018-04-06T14:17:15.524Z,40.50
2018-04-06T14:19:50.258Z,40.60
2018-04-06T14:22:22.989Z,41.00
2018-04-06T14:24:58.973Z,40.60
2018-04-06T14:27:32.479Z,38.50
2018-04-06T14:30:06.000Z,40.00
2018-04-06T14:32:38.706Z,40.00
2018-04-06T14:35:11.450Z,39.90
2018-04-06T14:37:44.150Z,39.40
2018-04-06T14:40:29.343Z,39.70
2018-04-06T14:43:02.060Z,40.60
2018-04-06T14:45:35.578Z,40.40
2018-04-06T14:48:08.275Z,40.30
2018-04-06T14:50:41.017Z,39.00
2018-04-06T14:53:14.541Z,40.20
2018-04-06T14:55:49.029Z,39.20
2018-04-06T14:58:22.511Z,38.70
2018-04-06T15:00:56.022Z,38.70
2018-04-06T15:03:29.538Z,40.30
2018-04-06T15:06:03.657Z,39.90
2018-04-06T15:08:40.603Z,39.90
2018-04-06T15:11:15.451Z,41.30
2018-04-06T15:13:50.444Z,42.40
2018-04-06T15:16:30.089Z,40.90
2018-04-06T15:19:05.257Z,40.50
2018-04-06T15:21:41.475Z,40.40
2018-04-06T15:24:16.153Z,40.80
2018-04-06T15:26:52.366Z,40.60
2018-04-06T15:29:25.894Z,41.80
2018-04-06T15:32:01.761Z,41.90
2018-04-06T15:34:38.127Z,42.50
2018-04-06T15:37:11.690Z,40.70
2018-04-06T15:40:03.638Z,40.60
2018-04-06T15:42:36.347Z,40.40
2018-04-06T15:45:09.093Z,41.80
2018-04-06T15:47:42.621Z,38.50
2018-04-06T15:50:15.367Z,38.50
2018-04-06T15:52:48.886Z,41.10
2018-04-06T15:55:32.058Z,41.10
2018-04-06T15:58:04.761Z,42.00
2018-04-06T16:00:38.377Z,42.70
2018-04-06T16:03:11.116Z,42.30
2018-04-06T16:05:43.915Z,42.00
2018-04-06T16:08:16.674Z,44.10
2018-04-06T16:10:59.173Z,42.90
2018-04-06T16:13:31.880Z,43.20
2018-04-06T16:16:04.630Z,42.70
2018-04-06T16:18:37.345Z,42.70
2018-04-06T16:21:10.851Z,40.90
2018-04-06T16:23:45.303Z,40.30
2018-04-06T16:26:19.101Z,40.20
2018-04-06T16:28:51.840Z,41.50
2018-04-06T16:31:26.528Z,42.70
2018-04-06T16:33:59.222Z,42.90
2018-04-06T16:36:31.966Z,41.80
2018-04-06T16:39:04.688Z,40.70
2018-04-06T16:41:37.492Z,40.40
2018-04-06T16:44:10.973Z,42.50
2018-04-06T16:46:43.717Z,41.80
2018-04-06T16:49:16.449Z,41.00
2018-04-06T16:51:50.938Z,42.30
2018-04-06T16:54:23.650Z,42.30
2018-04-06T16:57:00.922Z,43.10
2018-04-06T16:59:33.629Z,42.40
2018-04-06T17:02:06.376Z,43.50
2018-04-06T17:04:40.049Z,42.70
2018-04-06T17:07:12.785Z,42.90
2018-04-06T17:09:45.485Z,44.20
2018-04-06T17:12:25.364Z,43.10
2018-04-06T17:14:58.075Z,44.50
2018-04-06T17:17:31.585Z,45.40
2018-04-06T17:20:05.275Z,45.40
2018-04-06T17:22:38.799Z,47.80
2018-04-06T17:25:11.496Z,48.40
2018-04-06T17:28:07.886Z,47.10
2018-04-06T17:30:41.354Z,48.00
2018-04-06T17:33:15.056Z,47.90
2018-04-06T17:35:47.749Z,48.40
2018-04-06T17:38:20.500Z,48.90
2018-04-06T17:40:54.206Z,49.80
2018-04-06T17:43:26.958Z,50.20
2018-04-06T17:45:59.656Z,49.80
2018-04-06T17:48:32.397Z,49.90
2018-04-06T17:51:05.102Z,50.10
2018-04-06T17:53:37.842Z,50.40
2018-04-06T17:56:10.570Z,50.60
2018-04-06T17:58:43.307Z,51.70
2018-04-06T18:01:16.010Z,51.20
2018-04-06T18:03:49.522Z,51.40
2018-04-06T18:06:22.222Z,51.40
2018-04-06T18:09:04.838Z,52.60
2018-04-06T18:11:41.710Z,52.60
2018-04-06T18:17:03.118Z,53.50
2018-04-06T18:19:50.953Z,53.20
2018-04-06T18:22:30.821Z,52.90
2018-04-06T18:25:10.215Z,52.60
2018-04-06T18:30:41.788Z,52.40
2018-04-06T18:33:26.441Z,54.00
2018-04-06T18:36:00.408Z,54.00
2018-04-06T18:38:35.530Z,54.40
2018-04-06T18:41:08.262Z,54.40
2018-04-06T18:44:01.748Z,51.90
2018-04-06T18:46:36.304Z,51.30
2018-04-06T18:49:11.404Z,50.80
2018-04-06T18:51:44.120Z,51.20
2018-04-06T18:54:16.878Z,51.70
2018-04-06T18:56:55.717Z,52.80
2018-04-06T18:59:28.497Z,52.90
2018-04-06T19:02:01.220Z,53.80
2018-04-06T19:04:34.013Z,55.00
2018-04-06T19:07:06.721Z,57.10
2018-04-06T19:09:39.453Z,57.60
2018-04-06T19:12:12.201Z,58.20
2018-04-06T19:14:44.898Z,59.40
2018-04-06T19:17:18.392Z,59.70
2018-04-06T19:19:51.905Z,60.30
2018-04-06T19:22:24.629Z,60.30
2018-04-06T19:24:57.345Z,60.50
2018-04-06T19:27:31.863Z,59.80
2018-04-06T19:30:05.334Z,59.90
2018-04-06T19:32:43.453Z,59.80
2018-04-06T19:35:16.153Z,60.50
2018-04-06T19:37:49.651Z,59.30
2018-04-06T19:40:22.343Z,59.20
2018-04-06T19:45:41.155Z,60.90
2018-04-06T19:48:13.986Z,60.90
2018-04-06T19:50:48.947Z,59.70
2018-04-06T19:53:22.486Z,59.00
2018-04-06T19:55:57.952Z,59.00
2018-04-06T19:58:31.692Z,58.70
2018-04-06T20:01:07.768Z,59.00
2018-04-06T20:03:45.989Z,58.50
2018-04-06T20:06:27.825Z,58.70
2018-04-06T20:09:05.961Z,58.80
2018-04-06T20:11:42.519Z,58.70
2018-04-06T20:14:19.125Z,58.10
2018-04-06T20:16:51.830Z,57.50
2018-04-06T20:19:25.328Z,58.20
2018-04-06T20:21:58.792Z,58.30
2018-04-06T20:24:31.523Z,58.20
2018-04-06T20:27:06.274Z,57.90
2018-04-06T20:30:00.304Z,56.90
2018-04-06T20:32:33.777Z,57.10
2018-04-06T20:35:06.506Z,57.60
2018-04-06T20:37:39.985Z,56.80
2018-04-06T20:40:12.713Z,56.90
2018-04-06T20:42:46.408Z,57.40
2018-04-06T20:45:19.142Z,56.80
2018-04-06T20:47:53.570Z,57.60
2018-04-06T20:50:26.307Z,57.60
2018-04-06T20:52:59.793Z,58.10
2018-04-06T20:55:32.524Z,58.10
2018-04-06T20:58:06.150Z,58.70
2018-04-06T21:00:38.922Z,58.30
2018-04-06T21:03:11.621Z,58.60
2018-04-06T21:05:44.369Z,58.60
2018-04-06T21:08:17.106Z,58.50
2018-04-06T21:10:49.799Z,58.40
2018-04-06T21:13:24.338Z,58.50
2018-04-06T21:15:58.005Z,58.10
2018-04-06T21:18:30.801Z,58.50
2018-04-06T21:21:04.265Z,58.80
2018-04-06T21:23:37.976Z,58.10
2018-04-06T21:26:10.682Z,58.10
2018-04-06T21:28:51.060Z,58.50
2018-04-06T21:31:23.744Z,58.50
2018-04-06T21:34:03.078Z,59.10
2018-04-06T21:36:35.935Z,59.40
2018-04-06T21:39:09.402Z,59.70
2018-04-06T21:41:42.148Z,59.60
2018-04-06T21:44:33.535Z,59.30
2018-04-06T21:47:07.049Z,59.50
2018-04-06T21:49:39.742Z,59.50
2018-04-06T21:52:12.468Z,59.50
2018-04-06T21:54:45.163Z,59.50
2018-04-06T21:57:18.678Z,60.10
2018-04-06T21:59:51.407Z,60.10
2018-04-06T22:02:25.141Z,60.30
2018-04-06T22:04:59.557Z,60.20
2018-04-06T22:07:33.052Z,59.90
2018-04-06T22:10:06.525Z,60.30
2018-04-06T22:12:52.843Z,60.20
2018-04-06T22:15:33.082Z,60.80
2018-04-06T22:18:05.822Z,60.90
2018-04-06T22:20:38.585Z,61.20
2018-04-06T22:23:11.272Z,61.50
2018-04-06T22:28:29.120Z,61.30
2018-04-06T22:31:04.997Z,61.20
2018-04-06T22:33:37.963Z,60.80
2018-04-06T22:36:10.736Z,60.90
2018-04-06T22:38:43.452Z,61.30
2018-04-06T22:41:20.968Z,61.80
2018-04-06T22:43:53.747Z,62.00
2018-04-06T22:46:26.670Z,61.90
2018-04-06T22:48:59.754Z,62.00
2018-04-06T22:51:33.635Z,62.00
2018-04-06T22:54:08.456Z,62.70
2018-04-06T22:56:42.312Z,62.50
2018-04-06T22:59:22.368Z,62.50
2018-04-06T23:01:58.882Z,62.40
2018-04-06T23:04:32.356Z,62.80
2018-04-06T23:07:05.092Z,62.80
2018-04-06T23:09:37.789Z,62.70
2018-04-06T23:12:10.527Z,62.80
2018-04-06T23:14:43.991Z,62.80
2018-04-06T23:17:16.848Z,62.80
2018-04-06T23:19:50.520Z,62.80
2018-04-06T23:22:23.256Z,62.80
2018-04-06T23:24:55.954Z,62.80
2018-04-06T23:27:29.457Z,62.80
2018-04-06T23:30:14.486Z,62.80
2018-04-06T23:32:47.233Z,62.70
2018-04-06T23:35:19.941Z,63.30
2018-04-06T23:37:52.681Z,62.60
2018-04-06T23:40:25.445Z,62.20
2018-04-06T23:42:58.946Z,62.60
2018-04-06T23:45:33.613Z,62.50
2018-04-06T23:48:06.346Z,62.00
2018-04-06T23:50:39.810Z,61.70
2018-04-06T23:53:12.543Z,61.70
2018-04-06T23:55:45.240Z,61.80
2018-04-06T23:58:17.971Z,62.00
